sensor_id;sensor_type;location;lat;lon;timestamp;P1;durP1;ratioP1;P2;durP2;ratioP2
21206;SDS011;10761;48.532;8.026;2023-04-24T00:00:22;1.38;;;0.70;;
21206;SDS011;10761;48.532;8.026;2023-04-24T00:02:48;4.35;;;0.70;;
21206;SDS011;10761;48.532;8.026;2023-04-24T00:05:15;2.30;;;0.77;;
21206;SDS011;10761;48.532;8.026;2023-04-24T00:07:42;1.55;;;0.57;;
21206;SDS011;10761;48.532;8.026;2023-04-24T00:10:09;2.80;;;0.88;;
21206;SDS011;10761;48.532;8.026;2023-04-24T00:12:34;1.75;;;0.70;;
21206;SDS011;10761;48.532;8.026;2023-04-24T00:15:00;2.15;;;0.80;;
21206;SDS011;10761;48.532;8.026;2023-04-24T00:17:26;2.00;;;0.77;;
21206;SDS011;10761;48.532;8.026;2023-04-24T00:19:52;2.83;;;0.90;;
21206;SDS011;10761;48.532;8.026;2023-04-24T00:22:23;2.10;;;0.68;;
21206;SDS011;10761;48.532;8.026;2023-04-24T00:24:49;1.92;;;0.57;;
21206;SDS011;10761;48.532;8.026;2023-04-24T00:27:15;0.82;;;0.60;;
21206;SDS011;10761;48.532;8.026;2023-04-24T00:29:41;2.70;;;0.80;;
21206;SDS011;10761;48.532;8.026;2023-04-24T00:32:06;0.90;;;0.70;;
21206;SDS011;10761;48.532;8.026;2023-04-24T00:34:32;1.48;;;0.65;;
21206;SDS011;10761;48.532;8.026;2023-04-24T00:36:58;1.05;;;0.60;;
21206;SDS011;10761;48.532;8.026;2023-04-24T00:39:23;1.65;;;0.60;;
21206;SDS011;10761;48.532;8.026;2023-04-24T00:41:49;0.68;;;0.60;;
21206;SDS011;10761;48.532;8.026;2023-04-24T00:44:15;0.65;;;0.55;;
21206;SDS011;10761;48.532;8.026;2023-04-24T00:46:42;1.65;;;0.70;;
21206;SDS011;10761;48.532;8.026;2023-04-24T00:49:07;1.10;;;0.65;;
21206;SDS011;10761;48.532;8.026;2023-04-24T00:51:33;0.95;;;0.60;;
21206;SDS011;10761;48.532;8.026;2023-04-24T00:53:59;1.13;;;0.70;;
21206;SDS011;10761;48.532;8.026;2023-04-24T00:56:26;5.93;;;0.77;;
21206;SDS011;10761;48.532;8.026;2023-04-24T00:58:52;2.47;;;0.70;;
21206;SDS011;10761;48.532;8.026;2023-04-24T01:01:21;2.50;;;0.90;;
21206;SDS011;10761;48.532;8.026;2023-04-24T01:03:47;3.80;;;0.70;;
21206;SDS011;10761;48.532;8.026;2023-04-24T01:06:15;1.33;;;0.63;;
21206;SDS011;10761;48.532;8.026;2023-04-24T01:08:43;2.90;;;0.70;;
21206;SDS011;10761;48.532;8.026;2023-04-24T01:11:10;2.58;;;0.80;;
21206;SDS011;10761;48.532;8.026;2023-04-24T01:13:36;2.45;;;0.77;;
21206;SDS011;10761;48.532;8.026;2023-04-24T01:16:01;3.13;;;0.60;;
21206;SDS011;10761;48.532;8.026;2023-04-24T01:18:27;3.35;;;0.77;;
21206;SDS011;10761;48.532;8.026;2023-04-24T01:20:53;1.83;;;0.82;;
21206;SDS011;10761;48.532;8.026;2023-04-24T01:23:22;1.70;;;0.70;;
21206;SDS011;10761;48.532;8.026;2023-04-24T01:25:49;3.13;;;0.80;;
21206;SDS011;10761;48.532;8.026;2023-04-24T01:28:15;2.53;;;0.70;;
21206;SDS011;10761;48.532;8.026;2023-04-24T01:30:41;2.58;;;0.88;;
21206;SDS011;10761;48.532;8.026;2023-04-24T01:33:07;1.63;;;0.70;;
21206;SDS011;10761;48.532;8.026;2023-04-24T01:35:32;0.88;;;0.60;;
21206;SDS011;10761;48.532;8.026;2023-04-24T01:37:59;1.10;;;0.75;;
21206;SDS011;10761;48.532;8.026;2023-04-24T01:40:25;2.40;;;0.82;;
21206;SDS011;10761;48.532;8.026;2023-04-24T01:42:50;1.00;;;0.63;;
21206;SDS011;10761;48.532;8.026;2023-04-24T01:45:17;2.58;;;0.90;;
21206;SDS011;10761;48.532;8.026;2023-04-24T01:47:42;2.45;;;0.80;;
21206;SDS011;10761;48.532;8.026;2023-04-24T01:50:09;2.92;;;0.90;;
21206;SDS011;10761;48.532;8.026;2023-04-24T01:52:35;2.03;;;0.70;;
21206;SDS011;10761;48.532;8.026;2023-04-24T01:55:01;2.67;;;1.10;;
21206;SDS011;10761;48.532;8.026;2023-04-24T01:57:30;3.72;;;0.80;;
21206;SDS011;10761;48.532;8.026;2023-04-24T01:59:56;2.80;;;0.88;;
21206;SDS011;10761;48.532;8.026;2023-04-24T02:02:22;3.13;;;0.77;;
21206;SDS011;10761;48.532;8.026;2023-04-24T02:04:55;1.55;;;0.70;;
21206;SDS011;10761;48.532;8.026;2023-04-24T02:07:21;3.15;;;0.90;;
21206;SDS011;10761;48.532;8.026;2023-04-24T02:09:47;2.60;;;0.68;;
21206;SDS011;10761;48.532;8.026;2023-04-24T02:12:13;1.98;;;0.80;;
21206;SDS011;10761;48.532;8.026;2023-04-24T02:14:39;4.03;;;1.00;;
21206;SDS011;10761;48.532;8.026;2023-04-24T02:17:05;3.40;;;0.80;;
21206;SDS011;10761;48.532;8.026;2023-04-24T02:19:31;1.80;;;0.70;;
21206;SDS011;10761;48.532;8.026;2023-04-24T02:21:57;1.63;;;0.77;;
21206;SDS011;10761;48.532;8.026;2023-04-24T02:24:22;2.42;;;0.80;;
21206;SDS011;10761;48.532;8.026;2023-04-24T02:26:48;0.98;;;0.50;;
21206;SDS011;10761;48.532;8.026;2023-04-24T02:29:13;1.13;;;0.82;;
21206;SDS011;10761;48.532;8.026;2023-04-24T02:31:40;1.25;;;0.60;;
21206;SDS011;10761;48.532;8.026;2023-04-24T02:34:05;2.33;;;0.70;;
21206;SDS011;10761;48.532;8.026;2023-04-24T02:36:31;2.53;;;0.70;;
21206;SDS011;10761;48.532;8.026;2023-04-24T02:38:57;2.70;;;0.65;;
21206;SDS011;10761;48.532;8.026;2023-04-24T02:41:22;1.05;;;0.60;;
21206;SDS011;10761;48.532;8.026;2023-04-24T02:43:48;2.42;;;0.70;;
21206;SDS011;10761;48.532;8.026;2023-04-24T02:46:13;2.40;;;0.60;;
21206;SDS011;10761;48.532;8.026;2023-04-24T02:48:39;1.90;;;0.50;;
21206;SDS011;10761;48.532;8.026;2023-04-24T02:51:05;3.13;;;0.50;;
21206;SDS011;10761;48.532;8.026;2023-04-24T02:53:31;2.08;;;0.52;;
21206;SDS011;10761;48.532;8.026;2023-04-24T02:55:57;3.33;;;0.43;;
21206;SDS011;10761;48.532;8.026;2023-04-24T02:58:23;1.35;;;0.50;;
21206;SDS011;10761;48.532;8.026;2023-04-24T03:00:48;1.75;;;0.52;;
21206;SDS011;10761;48.532;8.026;2023-04-24T03:03:17;1.23;;;0.65;;
21206;SDS011;10761;48.532;8.026;2023-04-24T03:05:43;2.45;;;0.40;;
21206;SDS011;10761;48.532;8.026;2023-04-24T03:08:08;2.53;;;0.90;;
21206;SDS011;10761;48.532;8.026;2023-04-24T03:10:35;2.45;;;0.70;;
21206;SDS011;10761;48.532;8.026;2023-04-24T03:13:00;1.85;;;0.93;;
21206;SDS011;10761;48.532;8.026;2023-04-24T03:15:26;2.03;;;0.60;;
21206;SDS011;10761;48.532;8.026;2023-04-24T03:17:52;2.03;;;0.73;;
21206;SDS011;10761;48.532;8.026;2023-04-24T03:20:17;3.20;;;1.10;;
21206;SDS011;10761;48.532;8.026;2023-04-24T03:22:43;2.08;;;1.10;;
21206;SDS011;10761;48.532;8.026;2023-04-24T03:25:08;2.25;;;1.02;;
21206;SDS011;10761;48.532;8.026;2023-04-24T03:27:34;1.20;;;0.82;;
21206;SDS011;10761;48.532;8.026;2023-04-24T03:30:00;3.28;;;0.90;;
21206;SDS011;10761;48.532;8.026;2023-04-24T03:32:26;1.35;;;0.95;;
21206;SDS011;10761;48.532;8.026;2023-04-24T03:34:52;2.67;;;1.00;;
21206;SDS011;10761;48.532;8.026;2023-04-24T03:37:18;3.95;;;1.20;;
21206;SDS011;10761;48.532;8.026;2023-04-24T03:39:44;2.92;;;1.08;;
21206;SDS011;10761;48.532;8.026;2023-04-24T03:42:09;3.40;;;1.30;;
21206;SDS011;10761;48.532;8.026;2023-04-24T03:44:35;2.30;;;1.40;;
21206;SDS011;10761;48.532;8.026;2023-04-24T03:47:01;1.63;;;1.10;;
21206;SDS011;10761;48.532;8.026;2023-04-24T03:49:27;2.35;;;1.20;;
21206;SDS011;10761;48.532;8.026;2023-04-24T03:51:52;2.10;;;1.20;;
21206;SDS011;10761;48.532;8.026;2023-04-24T03:54:18;2.38;;;1.30;;
21206;SDS011;10761;48.532;8.026;2023-04-24T03:56:44;1.50;;;1.40;;
21206;SDS011;10761;48.532;8.026;2023-04-24T03:59:10;3.47;;;1.40;;
21206;SDS011;10761;48.532;8.026;2023-04-24T04:01:36;2.42;;;1.30;;
21206;SDS011;10761;48.532;8.026;2023-04-24T04:04:03;2.33;;;1.50;;
21206;SDS011;10761;48.532;8.026;2023-04-24T04:06:29;2.30;;;1.20;;
21206;SDS011;10761;48.532;8.026;2023-04-24T04:08:56;1.92;;;1.50;;
21206;SDS011;10761;48.532;8.026;2023-04-24T04:11:21;3.40;;;1.20;;
21206;SDS011;10761;48.532;8.026;2023-04-24T04:13:47;2.58;;;1.20;;
21206;SDS011;10761;48.532;8.026;2023-04-24T04:16:13;3.78;;;1.23;;
21206;SDS011;10761;48.532;8.026;2023-04-24T04:18:41;2.83;;;1.35;;
21206;SDS011;10761;48.532;8.026;2023-04-24T04:21:07;1.45;;;1.20;;
21206;SDS011;10761;48.532;8.026;2023-04-24T04:23:33;1.63;;;1.10;;
21206;SDS011;10761;48.532;8.026;2023-04-24T04:25:58;2.65;;;1.30;;
21206;SDS011;10761;48.532;8.026;2023-04-24T04:28:24;4.00;;;1.55;;
21206;SDS011;10761;48.532;8.026;2023-04-24T04:30:50;2.63;;;1.30;;
21206;SDS011;10761;48.532;8.026;2023-04-24T04:33:19;1.83;;;1.23;;
21206;SDS011;10761;48.532;8.026;2023-04-24T04:35:45;2.70;;;1.30;;
21206;SDS011;10761;48.532;8.026;2023-04-24T04:38:14;3.45;;;1.48;;
21206;SDS011;10761;48.532;8.026;2023-04-24T04:40:40;1.85;;;1.30;;
21206;SDS011;10761;48.532;8.026;2023-04-24T04:43:06;2.08;;;1.33;;
21206;SDS011;10761;48.532;8.026;2023-04-24T04:45:31;2.05;;;1.40;;
21206;SDS011;10761;48.532;8.026;2023-04-24T04:47:59;1.27;;;1.10;;
21206;SDS011;10761;48.532;8.026;2023-04-24T04:50:25;5.00;;;1.25;;
21206;SDS011;10761;48.532;8.026;2023-04-24T04:52:51;2.35;;;1.25;;
21206;SDS011;10761;48.532;8.026;2023-04-24T04:55:17;1.98;;;1.40;;
21206;SDS011;10761;48.532;8.026;2023-04-24T04:57:44;1.60;;;1.17;;
21206;SDS011;10761;48.532;8.026;2023-04-24T05:00:11;2.90;;;1.45;;
21206;SDS011;10761;48.532;8.026;2023-04-24T05:02:37;4.68;;;1.38;;
21206;SDS011;10761;48.532;8.026;2023-04-24T05:05:03;2.63;;;1.40;;
21206;SDS011;10761;48.532;8.026;2023-04-24T05:07:30;2.35;;;1.42;;
21206;SDS011;10761;48.532;8.026;2023-04-24T05:09:56;4.40;;;1.30;;
21206;SDS011;10761;48.532;8.026;2023-04-24T05:12:21;3.28;;;1.40;;
21206;SDS011;10761;48.532;8.026;2023-04-24T05:14:47;2.13;;;1.20;;
21206;SDS011;10761;48.532;8.026;2023-04-24T05:17:13;1.73;;;1.30;;
21206;SDS011;10761;48.532;8.026;2023-04-24T05:19:38;3.28;;;1.20;;
21206;SDS011;10761;48.532;8.026;2023-04-24T05:22:04;3.72;;;1.30;;
21206;SDS011;10761;48.532;8.026;2023-04-24T05:24:31;3.65;;;1.60;;
21206;SDS011;10761;48.532;8.026;2023-04-24T05:27:01;2.25;;;1.73;;
21206;SDS011;10761;48.532;8.026;2023-04-24T05:29:30;4.40;;;1.50;;
21206;SDS011;10761;48.532;8.026;2023-04-24T05:31:56;1.52;;;1.35;;
21206;SDS011;10761;48.532;8.026;2023-04-24T05:34:22;3.13;;;1.50;;
21206;SDS011;10761;48.532;8.026;2023-04-24T05:36:48;1.75;;;1.30;;
21206;SDS011;10761;48.532;8.026;2023-04-24T05:39:15;2.53;;;1.73;;
21206;SDS011;10761;48.532;8.026;2023-04-24T05:41:41;4.05;;;2.25;;
21206;SDS011;10761;48.532;8.026;2023-04-24T05:44:07;3.42;;;3.10;;
21206;SDS011;10761;48.532;8.026;2023-04-24T05:46:33;4.25;;;1.90;;
21206;SDS011;10761;48.532;8.026;2023-04-24T05:48:58;5.22;;;2.58;;
21206;SDS011;10761;48.532;8.026;2023-04-24T05:51:24;3.97;;;2.55;;
21206;SDS011;10761;48.532;8.026;2023-04-24T05:53:50;3.10;;;2.22;;
21206;SDS011;10761;48.532;8.026;2023-04-24T05:56:16;2.30;;;2.10;;
21206;SDS011;10761;48.532;8.026;2023-04-24T05:58:42;2.58;;;2.38;;
21206;SDS011;10761;48.532;8.026;2023-04-24T06:01:08;2.88;;;2.30;;
21206;SDS011;10761;48.532;8.026;2023-04-24T06:03:33;3.22;;;2.45;;
21206;SDS011;10761;48.532;8.026;2023-04-24T06:05:59;2.42;;;2.22;;
21206;SDS011;10761;48.532;8.026;2023-04-24T06:08:24;3.63;;;2.60;;
21206;SDS011;10761;48.532;8.026;2023-04-24T06:10:50;4.03;;;2.60;;
21206;SDS011;10761;48.532;8.026;2023-04-24T06:13:16;4.75;;;2.53;;
21206;SDS011;10761;48.532;8.026;2023-04-24T06:15:42;4.40;;;2.78;;
21206;SDS011;10761;48.532;8.026;2023-04-24T06:18:08;3.45;;;2.72;;
21206;SDS011;10761;48.532;8.026;2023-04-24T06:20:35;3.83;;;2.55;;
21206;SDS011;10761;48.532;8.026;2023-04-24T06:23:01;4.78;;;2.40;;
21206;SDS011;10761;48.532;8.026;2023-04-24T06:25:27;3.13;;;2.40;;
21206;SDS011;10761;48.532;8.026;2023-04-24T06:27:53;5.18;;;2.75;;
21206;SDS011;10761;48.532;8.026;2023-04-24T06:30:20;2.80;;;2.20;;
21206;SDS011;10761;48.532;8.026;2023-04-24T06:32:45;3.47;;;2.35;;
21206;SDS011;10761;48.532;8.026;2023-04-24T06:35:11;4.47;;;1.98;;
21206;SDS011;10761;48.532;8.026;2023-04-24T06:37:38;6.32;;;1.90;;
21206;SDS011;10761;48.532;8.026;2023-04-24T06:40:05;3.78;;;2.38;;
21206;SDS011;10761;48.532;8.026;2023-04-24T06:42:31;3.75;;;2.13;;
21206;SDS011;10761;48.532;8.026;2023-04-24T06:44:56;3.13;;;2.10;;
21206;SDS011;10761;48.532;8.026;2023-04-24T06:47:22;4.00;;;2.40;;
21206;SDS011;10761;48.532;8.026;2023-04-24T06:49:48;4.75;;;2.00;;
21206;SDS011;10761;48.532;8.026;2023-04-24T06:52:19;3.05;;;1.60;;
21206;SDS011;10761;48.532;8.026;2023-04-24T06:54:45;4.85;;;1.90;;
21206;SDS011;10761;48.532;8.026;2023-04-24T06:57:10;3.15;;;1.80;;
21206;SDS011;10761;48.532;8.026;2023-04-24T06:59:36;3.63;;;2.13;;
21206;SDS011;10761;48.532;8.026;2023-04-24T07:02:02;2.63;;;1.70;;
21206;SDS011;10761;48.532;8.026;2023-04-24T07:04:28;2.83;;;2.00;;
21206;SDS011;10761;48.532;8.026;2023-04-24T07:06:55;2.88;;;2.17;;
21206;SDS011;10761;48.532;8.026;2023-04-24T07:09:22;2.78;;;1.70;;
21206;SDS011;10761;48.532;8.026;2023-04-24T07:11:48;1.90;;;1.67;;
21206;SDS011;10761;48.532;8.026;2023-04-24T07:14:14;4.38;;;1.80;;
21206;SDS011;10761;48.532;8.026;2023-04-24T07:16:40;2.65;;;1.60;;
21206;SDS011;10761;48.532;8.026;2023-04-24T07:19:06;4.25;;;1.73;;
21206;SDS011;10761;48.532;8.026;2023-04-24T07:21:32;1.75;;;1.60;;
21206;SDS011;10761;48.532;8.026;2023-04-24T07:23:58;3.63;;;1.90;;
21206;SDS011;10761;48.532;8.026;2023-04-24T07:26:24;4.28;;;1.70;;
21206;SDS011;10761;48.532;8.026;2023-04-24T07:28:51;3.25;;;1.80;;
21206;SDS011;10761;48.532;8.026;2023-04-24T07:31:17;2.90;;;1.55;;
21206;SDS011;10761;48.532;8.026;2023-04-24T07:33:42;5.63;;;1.90;;
21206;SDS011;10761;48.532;8.026;2023-04-24T07:36:08;2.72;;;1.50;;
21206;SDS011;10761;48.532;8.026;2023-04-24T07:38:40;2.33;;;1.67;;
21206;SDS011;10761;48.532;8.026;2023-04-24T07:41:06;5.20;;;1.70;;
21206;SDS011;10761;48.532;8.026;2023-04-24T07:43:32;7.47;;;1.80;;
21206;SDS011;10761;48.532;8.026;2023-04-24T07:45:57;2.22;;;1.70;;
21206;SDS011;10761;48.532;8.026;2023-04-24T07:48:23;4.28;;;1.63;;
21206;SDS011;10761;48.532;8.026;2023-04-24T07:50:51;4.05;;;1.75;;
21206;SDS011;10761;48.532;8.026;2023-04-24T07:53:16;3.90;;;1.50;;
21206;SDS011;10761;48.532;8.026;2023-04-24T07:55:42;1.75;;;1.20;;
21206;SDS011;10761;48.532;8.026;2023-04-24T07:58:08;4.43;;;1.40;;
21206;SDS011;10761;48.532;8.026;2023-04-24T08:00:33;3.08;;;1.50;;
21206;SDS011;10761;48.532;8.026;2023-04-24T08:02:59;2.47;;;1.30;;
21206;SDS011;10761;48.532;8.026;2023-04-24T08:05:25;3.63;;;1.30;;
21206;SDS011;10761;48.532;8.026;2023-04-24T08:07:52;4.10;;;1.58;;
21206;SDS011;10761;48.532;8.026;2023-04-24T08:10:18;6.07;;;1.40;;
21206;SDS011;10761;48.532;8.026;2023-04-24T08:12:43;1.98;;;1.13;;
21206;SDS011;10761;48.532;8.026;2023-04-24T08:15:09;3.28;;;1.38;;
21206;SDS011;10761;48.532;8.026;2023-04-24T08:17:35;2.20;;;1.45;;
21206;SDS011;10761;48.532;8.026;2023-04-24T08:20:04;1.27;;;1.02;;
21206;SDS011;10761;48.532;8.026;2023-04-24T08:22:35;2.20;;;1.20;;
21206;SDS011;10761;48.532;8.026;2023-04-24T08:25:00;3.40;;;1.35;;
21206;SDS011;10761;48.532;8.026;2023-04-24T08:27:26;3.97;;;0.90;;
21206;SDS011;10761;48.532;8.026;2023-04-24T08:29:56;2.00;;;1.08;;
21206;SDS011;10761;48.532;8.026;2023-04-24T08:32:22;1.30;;;1.10;;
21206;SDS011;10761;48.532;8.026;2023-04-24T08:34:48;1.50;;;1.10;;
21206;SDS011;10761;48.532;8.026;2023-04-24T08:37:14;2.55;;;1.15;;
21206;SDS011;10761;48.532;8.026;2023-04-24T08:39:39;1.42;;;1.05;;
21206;SDS011;10761;48.532;8.026;2023-04-24T08:42:05;1.95;;;1.10;;
21206;SDS011;10761;48.532;8.026;2023-04-24T08:44:33;2.08;;;1.08;;
21206;SDS011;10761;48.532;8.026;2023-04-24T08:47:00;2.13;;;1.00;;
21206;SDS011;10761;48.532;8.026;2023-04-24T08:49:27;5.47;;;1.15;;
21206;SDS011;10761;48.532;8.026;2023-04-24T08:51:54;2.00;;;1.10;;
21206;SDS011;10761;48.532;8.026;2023-04-24T08:54:20;3.80;;;1.23;;
21206;SDS011;10761;48.532;8.026;2023-04-24T08:56:47;1.95;;;1.50;;
21206;SDS011;10761;48.532;8.026;2023-04-24T08:59:14;2.42;;;1.48;;
21206;SDS011;10761;48.532;8.026;2023-04-24T09:01:40;2.17;;;1.10;;
21206;SDS011;10761;48.532;8.026;2023-04-24T09:04:07;3.05;;;0.90;;
21206;SDS011;10761;48.532;8.026;2023-04-24T09:06:37;1.90;;;1.40;;
21206;SDS011;10761;48.532;8.026;2023-04-24T09:09:03;2.58;;;1.30;;
21206;SDS011;10761;48.532;8.026;2023-04-24T09:11:31;2.97;;;1.65;;
21206;SDS011;10761;48.532;8.026;2023-04-24T09:13:59;1.95;;;1.20;;
21206;SDS011;10761;48.532;8.026;2023-04-24T09:16:26;3.22;;;1.13;;
21206;SDS011;10761;48.532;8.026;2023-04-24T09:18:52;2.72;;;1.33;;
21206;SDS011;10761;48.532;8.026;2023-04-24T09:21:19;2.85;;;1.50;;
21206;SDS011;10761;48.532;8.026;2023-04-24T09:23:46;3.42;;;1.40;;
21206;SDS011;10761;48.532;8.026;2023-04-24T09:26:11;1.80;;;1.25;;
21206;SDS011;10761;48.532;8.026;2023-04-24T09:28:40;4.28;;;1.52;;
21206;SDS011;10761;48.532;8.026;2023-04-24T09:31:07;2.45;;;1.10;;
21206;SDS011;10761;48.532;8.026;2023-04-24T09:33:56;2.70;;;1.38;;
21206;SDS011;10761;48.532;8.026;2023-04-24T09:36:30;2.25;;;1.10;;
21206;SDS011;10761;48.532;8.026;2023-04-24T09:39:02;1.25;;;1.10;;
21206;SDS011;10761;48.532;8.026;2023-04-24T09:41:31;1.10;;;1.00;;
21206;SDS011;10761;48.532;8.026;2023-04-24T09:43:58;1.13;;;1.00;;
21206;SDS011;10761;48.532;8.026;2023-04-24T09:46:40;2.42;;;1.60;;
21206;SDS011;10761;48.532;8.026;2023-04-24T09:49:07;1.80;;;1.17;;
21206;SDS011;10761;48.532;8.026;2023-04-24T09:51:36;3.30;;;1.05;;
21206;SDS011;10761;48.532;8.026;2023-04-24T09:54:03;5.57;;;1.50;;
21206;SDS011;10761;48.532;8.026;2023-04-24T09:56:32;1.27;;;1.17;;
21206;SDS011;10761;48.532;8.026;2023-04-24T09:59:05;3.70;;;1.30;;
21206;SDS011;10761;48.532;8.026;2023-04-24T10:01:31;3.85;;;1.50;;
21206;SDS011;10761;48.532;8.026;2023-04-24T10:03:57;2.15;;;1.20;;
21206;SDS011;10761;48.532;8.026;2023-04-24T10:06:24;2.13;;;1.30;;
21206;SDS011;10761;48.532;8.026;2023-04-24T10:08:58;2.33;;;1.10;;
21206;SDS011;10761;48.532;8.026;2023-04-24T10:11:27;1.75;;;0.95;;
21206;SDS011;10761;48.532;8.026;2023-04-24T10:13:54;1.10;;;1.00;;
21206;SDS011;10761;48.532;8.026;2023-04-24T10:16:23;2.08;;;1.10;;
21206;SDS011;10761;48.532;8.026;2023-04-24T10:18:49;1.90;;;0.95;;
21206;SDS011;10761;48.532;8.026;2023-04-24T10:21:15;2.17;;;1.00;;
21206;SDS011;10761;48.532;8.026;2023-04-24T10:23:42;1.80;;;1.10;;
21206;SDS011;10761;48.532;8.026;2023-04-24T10:26:12;1.80;;;1.27;;
21206;SDS011;10761;48.532;8.026;2023-04-24T10:28:46;1.15;;;1.05;;
21206;SDS011;10761;48.532;8.026;2023-04-24T10:31:12;3.88;;;1.40;;
21206;SDS011;10761;48.532;8.026;2023-04-24T10:33:42;1.67;;;1.10;;
21206;SDS011;10761;48.532;8.026;2023-04-24T10:36:10;2.13;;;1.60;;
21206;SDS011;10761;48.532;8.026;2023-04-24T10:38:39;1.90;;;1.10;;
21206;SDS011;10761;48.532;8.026;2023-04-24T10:41:07;2.38;;;1.35;;
21206;SDS011;10761;48.532;8.026;2023-04-24T10:43:34;1.60;;;1.10;;
21206;SDS011;10761;48.532;8.026;2023-04-24T10:46:04;2.78;;;1.10;;
21206;SDS011;10761;48.532;8.026;2023-04-24T10:48:31;4.03;;;1.40;;
21206;SDS011;10761;48.532;8.026;2023-04-24T10:50:57;1.48;;;1.10;;
21206;SDS011;10761;48.532;8.026;2023-04-24T10:53:23;1.75;;;1.05;;
21206;SDS011;10761;48.532;8.026;2023-04-24T10:55:57;1.08;;;0.90;;
21206;SDS011;10761;48.532;8.026;2023-04-24T11:01:08;2.13;;;0.70;;
21206;SDS011;10761;48.532;8.026;2023-04-24T11:03:34;1.33;;;0.85;;
21206;SDS011;10761;48.532;8.026;2023-04-24T11:19:03;0.90;;;0.90;;
21206;SDS011;10761;48.532;8.026;2023-04-24T11:27:13;1.15;;;1.05;;
21206;SDS011;10761;48.532;8.026;2023-04-24T11:32:34;1.20;;;1.10;;
21206;SDS011;10761;48.532;8.026;2023-04-24T11:35:14;2.40;;;1.50;;
21206;SDS011;10761;48.532;8.026;2023-04-24T11:37:42;1.95;;;1.30;;
21206;SDS011;10761;48.532;8.026;2023-04-24T11:40:11;2.78;;;1.42;;
21206;SDS011;10761;48.532;8.026;2023-04-24T11:42:42;4.53;;;1.30;;
21206;SDS011;10761;48.532;8.026;2023-04-24T11:45:10;3.35;;;1.60;;
21206;SDS011;10761;48.532;8.026;2023-04-24T11:47:44;1.80;;;1.48;;
21206;SDS011;10761;48.532;8.026;2023-04-24T11:50:14;3.22;;;1.70;;
21206;SDS011;10761;48.532;8.026;2023-04-24T11:52:41;2.58;;;1.48;;
21206;SDS011;10761;48.532;8.026;2023-04-24T11:57:50;2.58;;;1.50;;
21206;SDS011;10761;48.532;8.026;2023-04-24T12:00:25;2.70;;;1.35;;
21206;SDS011;10761;48.532;8.026;2023-04-24T12:03:03;4.65;;;1.58;;
21206;SDS011;10761;48.532;8.026;2023-04-24T12:05:33;2.58;;;1.55;;
21206;SDS011;10761;48.532;8.026;2023-04-24T12:07:59;4.60;;;1.40;;
21206;SDS011;10761;48.532;8.026;2023-04-24T12:10:26;3.15;;;1.58;;
21206;SDS011;10761;48.532;8.026;2023-04-24T12:12:54;2.38;;;1.55;;
21206;SDS011;10761;48.532;8.026;2023-04-24T12:15:21;2.65;;;1.40;;
21206;SDS011;10761;48.532;8.026;2023-04-24T12:17:47;1.63;;;1.15;;
21206;SDS011;10761;48.532;8.026;2023-04-24T12:20:15;3.72;;;1.27;;
21206;SDS011;10761;48.532;8.026;2023-04-24T12:22:44;1.20;;;1.00;;
21206;SDS011;10761;48.532;8.026;2023-04-24T12:25:14;1.63;;;1.20;;
21206;SDS011;10761;48.532;8.026;2023-04-24T12:27:41;4.63;;;1.00;;
21206;SDS011;10761;48.532;8.026;2023-04-24T12:30:12;2.08;;;1.20;;
21206;SDS011;10761;48.532;8.026;2023-04-24T12:32:43;2.60;;;1.10;;
21206;SDS011;10761;48.532;8.026;2023-04-24T12:35:09;2.45;;;1.25;;
21206;SDS011;10761;48.532;8.026;2023-04-24T12:37:36;2.40;;;1.00;;
21206;SDS011;10761;48.532;8.026;2023-04-24T12:42:33;2.17;;;1.35;;
21206;SDS011;10761;48.532;8.026;2023-04-24T12:45:06;2.25;;;1.40;;
21206;SDS011;10761;48.532;8.026;2023-04-24T12:47:33;1.95;;;1.17;;
21206;SDS011;10761;48.532;8.026;2023-04-24T12:49:59;1.65;;;1.20;;
21206;SDS011;10761;48.532;8.026;2023-04-24T12:52:26;2.42;;;1.50;;
21206;SDS011;10761;48.532;8.026;2023-04-24T12:54:54;2.10;;;1.10;;
21206;SDS011;10761;48.532;8.026;2023-04-24T12:57:21;2.97;;;1.48;;
21206;SDS011;10761;48.532;8.026;2023-04-24T12:59:47;3.42;;;1.73;;
21206;SDS011;10761;48.532;8.026;2023-04-24T13:02:13;5.63;;;2.10;;
21206;SDS011;10761;48.532;8.026;2023-04-24T13:04:39;4.30;;;1.45;;
21206;SDS011;10761;48.532;8.026;2023-04-24T13:07:05;4.82;;;1.75;;
21206;SDS011;10761;48.532;8.026;2023-04-24T13:09:30;4.60;;;2.00;;
21206;SDS011;10761;48.532;8.026;2023-04-24T13:11:56;2.47;;;1.20;;
21206;SDS011;10761;48.532;8.026;2023-04-24T13:14:22;3.33;;;1.35;;
21206;SDS011;10761;48.532;8.026;2023-04-24T13:16:48;1.92;;;1.30;;
21206;SDS011;10761;48.532;8.026;2023-04-24T13:19:14;5.05;;;1.70;;
21206;SDS011;10761;48.532;8.026;2023-04-24T13:21:40;3.88;;;1.40;;
21206;SDS011;10761;48.532;8.026;2023-04-24T13:24:05;3.17;;;1.48;;
21206;SDS011;10761;48.532;8.026;2023-04-24T13:26:32;2.75;;;1.40;;
21206;SDS011;10761;48.532;8.026;2023-04-24T13:28:58;6.10;;;1.40;;
21206;SDS011;10761;48.532;8.026;2023-04-24T13:31:23;2.70;;;1.20;;
21206;SDS011;10761;48.532;8.026;2023-04-24T13:33:49;3.42;;;1.40;;
21206;SDS011;10761;48.532;8.026;2023-04-24T13:36:15;5.13;;;1.10;;
21206;SDS011;10761;48.532;8.026;2023-04-24T13:38:42;1.90;;;1.17;;
21206;SDS011;10761;48.532;8.026;2023-04-24T13:41:09;2.63;;;1.30;;
21206;SDS011;10761;48.532;8.026;2023-04-24T13:43:35;1.50;;;1.25;;
21206;SDS011;10761;48.532;8.026;2023-04-24T13:46:01;2.17;;;1.33;;
21206;SDS011;10761;48.532;8.026;2023-04-24T13:48:28;2.80;;;1.50;;
21206;SDS011;10761;48.532;8.026;2023-04-24T13:50:54;2.45;;;1.38;;
21206;SDS011;10761;48.532;8.026;2023-04-24T13:53:19;2.58;;;1.50;;
21206;SDS011;10761;48.532;8.026;2023-04-24T13:55:45;1.85;;;1.40;;
21206;SDS011;10761;48.532;8.026;2023-04-24T13:58:11;3.47;;;1.13;;
21206;SDS011;10761;48.532;8.026;2023-04-24T14:00:36;3.13;;;1.45;;
21206;SDS011;10761;48.532;8.026;2023-04-24T14:03:02;3.15;;;1.50;;
21206;SDS011;10761;48.532;8.026;2023-04-24T14:05:27;2.50;;;1.50;;
21206;SDS011;10761;48.532;8.026;2023-04-24T14:07:53;2.03;;;1.70;;
21206;SDS011;10761;48.532;8.026;2023-04-24T14:10:19;3.13;;;1.58;;
21206;SDS011;10761;48.532;8.026;2023-04-24T14:12:44;2.17;;;1.40;;
21206;SDS011;10761;48.532;8.026;2023-04-24T14:15:10;3.42;;;1.65;;
21206;SDS011;10761;48.532;8.026;2023-04-24T14:17:36;1.92;;;1.60;;
21206;SDS011;10761;48.532;8.026;2023-04-24T14:20:02;2.28;;;1.45;;
21206;SDS011;10761;48.532;8.026;2023-04-24T14:22:29;2.50;;;1.27;;
21206;SDS011;10761;48.532;8.026;2023-04-24T14:24:55;2.33;;;1.40;;
21206;SDS011;10761;48.532;8.026;2023-04-24T14:27:20;2.50;;;1.60;;
21206;SDS011;10761;48.532;8.026;2023-04-24T14:29:46;2.35;;;1.35;;
21206;SDS011;10761;48.532;8.026;2023-04-24T14:32:11;1.60;;;1.33;;
21206;SDS011;10761;48.532;8.026;2023-04-24T14:34:39;4.13;;;1.45;;
21206;SDS011;10761;48.532;8.026;2023-04-24T14:37:06;4.07;;;1.40;;
21206;SDS011;10761;48.532;8.026;2023-04-24T14:39:32;1.65;;;1.55;;
21206;SDS011;10761;48.532;8.026;2023-04-24T14:41:58;2.40;;;1.40;;
21206;SDS011;10761;48.532;8.026;2023-04-24T14:44:23;1.92;;;1.58;;
21206;SDS011;10761;48.532;8.026;2023-04-24T14:46:49;2.47;;;1.70;;
21206;SDS011;10761;48.532;8.026;2023-04-24T14:49:15;2.33;;;1.60;;
21206;SDS011;10761;48.532;8.026;2023-04-24T14:51:40;2.03;;;1.20;;
21206;SDS011;10761;48.532;8.026;2023-04-24T14:54:07;5.15;;;1.33;;
21206;SDS011;10761;48.532;8.026;2023-04-24T14:56:33;2.45;;;1.02;;
21206;SDS011;10761;48.532;8.026;2023-04-24T14:58:58;2.85;;;1.20;;
21206;SDS011;10761;48.532;8.026;2023-04-24T15:01:24;1.55;;;1.20;;
21206;SDS011;10761;48.532;8.026;2023-04-24T15:03:50;2.05;;;1.38;;
21206;SDS011;10761;48.532;8.026;2023-04-24T15:06:15;4.53;;;1.33;;
21206;SDS011;10761;48.532;8.026;2023-04-24T15:08:41;2.30;;;1.42;;
21206;SDS011;10761;48.532;8.026;2023-04-24T15:11:07;1.90;;;1.40;;
21206;SDS011;10761;48.532;8.026;2023-04-24T15:13:34;2.58;;;1.48;;